Portada
METAR-TAF:

METAR-TAF

Aeroports :

Tumbes, Perú

latitud: 03-33S, longitud: 080-24W, altitud: 25 m

Observació

L'informe es va fer fa 13 minuts, a les 18:00 UTC
Vent 11 kt del Nord
Temperatura 27°C
Humitat 62%
Pressió 1011 hPa
Visibilitat 10 km o més
Núvols disperses a una alçada de 2500 ft

METAR: SPME 191800Z 35011KT 9999 SCT025 27/19 Q1011 RMK BIRD HAZARD RWY 32/14 PP000

Hora: 13:13 (18:13 UTC)

Pronòstic

L'informe es va fer fa 1 hora i 13 minuts, a les 17:00 UTC
Pronòstic vàlid del 19 a les 18 UTC al 20 a les 18 UTC
Vent 10 kt del Nord/Nord-Oest
Visibilitat 10 km o més
Núvols disperses a una alçada de 2500 ft
Evolucionant progressivament
l' 19 a les 21 UTC al 20 a les 01 UTC
Vent 8 kt del Oest
Cel ennuvolat a una alçada de 1500 ft
Evolucionant progressivament
l' 20 a les 01 UTC al 20 a les 05 UTC
Cel ennuvolat a una alçada de 1200 ft

TAF: SPME 191700Z 1918/2018 33010KT 9999 SCT025 TX29/1919Z TN20/2011Z BECMG 1921/2001 28008KT BKN015 BECMG 2001/2005 BKN012

Observacions i pronòstics meteorològics de més de 4000 aeroports (METAR i TAF).

Les estacions disponibles són els punts grocs i vermells al mapa.

Posi el ratolí al punt desitjat per veure el nom de l'estació.

Feu clic per veure les observacions i els pronòstics meteorològics.

Per canviar el mapa: feu clic els botons verds amb una creu de color negre per apropar; al botó verd amb un guió per allunyar la imatge; o en les fletxes verdes per a mapes adjacents.


METAR-TAF: